createdAt,value
2022-10-30T00:01:45.517Z,11.18
2022-10-30T00:04:12.579Z,10.92
2022-10-30T00:06:39.552Z,11.91
2022-10-30T00:09:06.462Z,11.97
2022-10-30T00:11:33.430Z,2.53
2022-10-30T00:14:00.408Z,11.74
2022-10-30T00:16:27.395Z,11.33
2022-10-30T00:18:55.046Z,12.42
2022-10-30T00:21:21.929Z,10.70
2022-10-30T00:23:51.515Z,11.02
2022-10-30T00:26:20.165Z,9.34
2022-10-30T00:28:54.161Z,10.21
2022-10-30T00:31:21.901Z,11.20
2022-10-30T00:33:53.677Z,12.46
2022-10-30T00:36:21.309Z,12.46
2022-10-30T00:38:48.536Z,10.31
2022-10-30T00:41:21.910Z,7.28
2022-10-30T00:43:49.388Z,12.53
2022-10-30T00:46:25.711Z,11.97
2022-10-30T00:49:01.062Z,9.25
2022-10-30T00:51:30.344Z,4.44
2022-10-30T00:54:01.653Z,4.59
2022-10-30T00:56:29.612Z,9.23
2022-10-30T00:59:02.565Z,12.60
2022-10-30T01:01:32.821Z,12.60
2022-10-30T01:04:02.842Z,11.41
2022-10-30T01:06:32.819Z,11.35
2022-10-30T01:09:00.852Z,10.90
2022-10-30T01:11:27.939Z,11.94
2022-10-30T01:14:00.920Z,12.52
2022-10-30T01:16:55.135Z,12.08
2022-10-30T01:19:44.661Z,12.50
2022-10-30T01:22:26.649Z,12.51
2022-10-30T01:24:59.484Z,12.50
2022-10-30T01:27:57.474Z,12.46
2022-10-30T01:30:39.714Z,12.50
2022-10-30T01:33:34.692Z,12.48
2022-10-30T01:36:26.000Z,12.47
2022-10-30T01:38:57.282Z,10.64
2022-10-30T01:41:24.681Z,11.48
2022-10-30T01:44:00.117Z,10.72
2022-10-30T01:46:59.297Z,11.06
2022-10-30T01:50:03.919Z,12.51
2022-10-30T01:52:58.214Z,11.54
2022-10-30T01:55:56.853Z,12.04
2022-10-30T01:58:36.219Z,12.54
2022-10-30T02:01:04.714Z,12.55
2022-10-30T02:03:31.829Z,12.00
2022-10-30T02:05:58.957Z,9.76
2022-10-30T02:08:26.122Z,12.13
2022-10-30T02:10:54.505Z,12.48
2022-10-30T02:13:21.906Z,11.48
2022-10-30T02:15:50.309Z,10.08
2022-10-30T02:18:20.474Z,12.44
2022-10-30T02:20:47.537Z,11.37
2022-10-30T02:23:19.301Z,12.47
2022-10-30T02:25:46.513Z,11.74
2022-10-30T02:28:13.477Z,12.03
2022-10-30T02:30:44.508Z,10.10
2022-10-30T02:33:12.062Z,12.40
2022-10-30T02:35:39.008Z,10.34
2022-10-30T02:38:06.255Z,12.44
2022-10-30T02:40:33.452Z,11.34
2022-10-30T02:43:00.539Z,10.78
2022-10-30T02:45:27.524Z,12.48
2022-10-30T02:47:54.540Z,11.36
2022-10-30T02:50:21.712Z,9.68
2022-10-30T02:52:48.614Z,10.01
2022-10-30T02:55:15.701Z,11.21
2022-10-30T02:57:42.657Z,12.04
2022-10-30T03:00:10.361Z,11.67
2022-10-30T03:02:37.330Z,10.87
2022-10-30T03:05:05.024Z,12.44
2022-10-30T03:07:32.240Z,12.42
2022-10-30T03:09:59.281Z,11.37
2022-10-30T03:12:26.382Z,10.43
2022-10-30T03:14:53.364Z,12.12
2022-10-30T03:17:20.297Z,11.37
2022-10-30T03:19:47.286Z,11.01
2022-10-30T03:22:14.243Z,4.51
2022-10-30T03:24:41.246Z,10.22
2022-10-30T03:27:08.226Z,7.66
2022-10-30T03:29:35.222Z,12.25
2022-10-30T03:32:02.192Z,4.41
2022-10-30T03:34:29.144Z,10.79
2022-10-30T03:36:56.456Z,5.53
2022-10-30T03:39:23.394Z,7.71
2022-10-30T03:41:50.305Z,10.80
2022-10-30T03:44:17.259Z,6.59
2022-10-30T03:46:44.143Z,4.45
2022-10-30T03:49:11.151Z,5.62
2022-10-30T03:51:38.176Z,6.14
2022-10-30T03:54:05.089Z,3.73
2022-10-30T03:56:32.082Z,7.97
2022-10-30T03:58:59.037Z,12.35
2022-10-30T04:01:26.081Z,11.08
2022-10-30T04:03:53.096Z,6.52
2022-10-30T04:06:20.011Z,10.20
2022-10-30T04:08:46.944Z,11.11
2022-10-30T04:11:13.938Z,9.62
2022-10-30T04:13:40.943Z,11.51
2022-10-30T04:16:08.130Z,8.81
2022-10-30T04:18:35.246Z,10.86
2022-10-30T04:21:02.222Z,7.25
2022-10-30T04:23:29.356Z,9.88
2022-10-30T04:25:56.442Z,7.58
2022-10-30T04:28:23.397Z,10.48
2022-10-30T04:30:50.387Z,10.90
2022-10-30T04:33:17.393Z,8.29
2022-10-30T04:35:44.383Z,11.94
2022-10-30T04:38:14.187Z,12.21
2022-10-30T04:40:43.604Z,12.24
2022-10-30T04:43:12.060Z,11.84
2022-10-30T04:45:40.194Z,12.28
2022-10-30T04:48:18.578Z,11.93
2022-10-30T04:50:45.589Z,10.66
2022-10-30T04:53:15.264Z,12.28
2022-10-30T04:55:42.860Z,7.05
2022-10-30T04:58:10.618Z,7.39
2022-10-30T05:00:37.501Z,10.27
2022-10-30T05:03:04.949Z,12.29
2022-10-30T05:05:32.382Z,11.40
2022-10-30T05:07:59.864Z,3.55
2022-10-30T05:10:27.461Z,11.28
2022-10-30T05:12:54.748Z,4.40
2022-10-30T05:15:22.361Z,11.28
2022-10-30T05:17:54.076Z,12.18
2022-10-30T05:20:21.942Z,10.24
2022-10-30T05:22:56.805Z,12.29
2022-10-30T05:25:24.767Z,12.27
2022-10-30T05:27:51.938Z,12.36
2022-10-30T05:30:18.778Z,12.04
2022-10-30T05:32:45.803Z,11.94
2022-10-30T05:35:12.807Z,10.95
2022-10-30T05:37:39.800Z,11.36
2022-10-30T05:40:07.272Z,9.84
2022-10-30T05:42:34.158Z,11.00
2022-10-30T05:45:02.230Z,10.89
2022-10-30T05:47:29.646Z,12.33
2022-10-30T05:49:56.592Z,12.32
2022-10-30T05:52:23.558Z,10.53
2022-10-30T05:54:50.536Z,11.70
2022-10-30T05:57:17.485Z,12.03
2022-10-30T05:59:44.454Z,9.81
2022-10-30T06:02:11.700Z,12.36
2022-10-30T06:04:38.677Z,9.68
2022-10-30T06:07:05.779Z,11.38
2022-10-30T06:09:32.689Z,10.95
2022-10-30T06:11:59.720Z,12.43
2022-10-30T06:14:26.694Z,10.65
2022-10-30T06:16:53.631Z,11.29
2022-10-30T06:19:20.754Z,10.34
2022-10-30T06:21:47.815Z,12.24
2022-10-30T06:24:15.215Z,10.82
2022-10-30T06:26:42.176Z,12.58
2022-10-30T06:29:09.256Z,10.91
2022-10-30T06:31:36.161Z,12.00
2022-10-30T06:34:03.241Z,12.71
2022-10-30T06:36:30.212Z,10.84
2022-10-30T06:38:57.417Z,10.99
2022-10-30T06:41:29.044Z,5.92
2022-10-30T06:43:57.610Z,6.24
2022-10-30T06:46:27.471Z,8.59
2022-10-30T06:48:57.971Z,3.84
2022-10-30T06:51:25.249Z,6.34
2022-10-30T06:53:52.688Z,10.74
2022-10-30T06:56:19.697Z,10.43
2022-10-30T06:58:46.672Z,7.58
2022-10-30T07:01:13.853Z,3.00
2022-10-30T07:03:40.892Z,11.26
2022-10-30T07:06:08.050Z,8.26
2022-10-30T07:08:35.019Z,6.87
2022-10-30T07:11:02.000Z,8.92
2022-10-30T07:13:28.917Z,9.69
2022-10-30T07:15:55.854Z,11.55
2022-10-30T07:18:22.810Z,8.93
2022-10-30T07:20:56.514Z,11.76
2022-10-30T07:23:24.134Z,8.88
2022-10-30T07:25:51.226Z,10.19
2022-10-30T07:28:26.099Z,11.75
2022-10-30T07:30:53.019Z,12.91
2022-10-30T07:33:19.970Z,12.18
2022-10-30T07:35:46.945Z,12.65
2022-10-30T07:38:14.679Z,11.24
2022-10-30T07:40:41.818Z,12.70
2022-10-30T07:43:13.507Z,10.42
2022-10-30T07:45:40.504Z,12.94
2022-10-30T07:48:07.415Z,12.96
2022-10-30T07:50:34.391Z,7.79
2022-10-30T07:53:01.322Z,12.43
2022-10-30T07:55:28.344Z,12.95
2022-10-30T07:57:55.481Z,12.63
2022-10-30T08:00:22.987Z,8.17
2022-10-30T08:02:51.535Z,13.34
2022-10-30T08:05:19.459Z,13.92
2022-10-30T08:07:47.451Z,14.25
2022-10-30T08:10:14.663Z,14.23
2022-10-30T08:12:44.149Z,12.60
2022-10-30T08:15:11.998Z,12.67
2022-10-30T08:17:46.341Z,14.40
2022-10-30T08:20:15.026Z,13.43
2022-10-30T08:22:50.175Z,14.44
2022-10-30T08:25:19.520Z,13.48
2022-10-30T08:28:07.096Z,12.22
2022-10-30T08:30:36.181Z,14.34
2022-10-30T08:33:05.744Z,14.39
2022-10-30T08:35:33.503Z,9.24
2022-10-30T08:38:03.294Z,14.60
2022-10-30T08:40:30.370Z,14.00
2022-10-30T08:42:58.522Z,14.75
2022-10-30T08:45:29.930Z,14.82
2022-10-30T08:48:00.806Z,9.21
2022-10-30T08:50:28.264Z,13.16
2022-10-30T08:52:55.291Z,11.67
2022-10-30T08:55:22.503Z,10.56
2022-10-30T08:57:49.683Z,13.51
2022-10-30T09:00:16.872Z,14.27
2022-10-30T09:02:44.590Z,12.89
2022-10-30T09:05:11.982Z,14.88
2022-10-30T09:07:38.920Z,13.04
2022-10-30T09:10:06.429Z,14.11
2022-10-30T09:12:33.406Z,15.07
2022-10-30T09:15:00.471Z,14.88
2022-10-30T09:17:27.513Z,13.76
2022-10-30T09:19:54.595Z,14.50
2022-10-30T09:22:21.578Z,14.83
2022-10-30T09:24:48.732Z,14.57
2022-10-30T09:27:15.749Z,7.49
2022-10-30T09:29:42.675Z,13.75
2022-10-30T09:32:10.780Z,13.90
2022-10-30T09:34:38.754Z,12.85
2022-10-30T09:37:06.180Z,15.07
2022-10-30T09:39:33.156Z,15.15
2022-10-30T09:42:36.528Z,15.19
2022-10-30T09:45:28.803Z,15.27
2022-10-30T09:48:09.459Z,15.35
2022-10-30T09:50:56.348Z,15.15
2022-10-30T09:53:34.139Z,15.34
2022-10-30T09:56:16.033Z,14.93
2022-10-30T09:59:13.344Z,15.19
2022-10-30T10:01:53.633Z,13.99
2022-10-30T10:04:40.048Z,12.51
2022-10-30T10:07:17.608Z,12.03
2022-10-30T10:09:45.333Z,13.05
2022-10-30T10:12:26.193Z,15.00
2022-10-30T10:14:54.742Z,15.00
2022-10-30T10:17:43.726Z,15.11
2022-10-30T10:20:30.268Z,14.96
2022-10-30T10:23:00.430Z,10.75
2022-10-30T10:25:31.521Z,13.34
2022-10-30T10:28:04.506Z,14.85
2022-10-30T10:31:13.011Z,14.25
2022-10-30T10:34:04.627Z,14.77
2022-10-30T10:36:43.324Z,13.95
2022-10-30T10:39:40.333Z,14.92
2022-10-30T10:42:16.499Z,15.01
2022-10-30T10:44:50.538Z,13.39
2022-10-30T10:47:37.498Z,14.85
2022-10-30T10:50:15.276Z,14.54
2022-10-30T10:52:55.815Z,14.98
2022-10-30T10:55:28.746Z,14.87
2022-10-30T10:58:00.328Z,15.31
2022-10-30T11:00:29.801Z,15.08
2022-10-30T11:03:03.434Z,15.47
2022-10-30T11:05:47.173Z,13.87
2022-10-30T11:08:29.707Z,6.73
2022-10-30T11:11:02.100Z,14.94
2022-10-30T11:13:36.671Z,15.22
2022-10-30T11:16:09.952Z,15.13
2022-10-30T11:18:37.125Z,12.03
2022-10-30T11:21:10.277Z,15.01
2022-10-30T11:23:44.569Z,14.90
2022-10-30T11:26:17.631Z,14.86
2022-10-30T11:28:59.383Z,14.95
2022-10-30T11:31:40.831Z,14.36
2022-10-30T11:34:17.786Z,15.05
2022-10-30T11:36:45.913Z,13.48
2022-10-30T11:39:19.958Z,14.21
2022-10-30T11:42:05.741Z,15.20
2022-10-30T11:44:45.796Z,14.25
2022-10-30T11:47:15.786Z,14.83
2022-10-30T11:49:55.675Z,13.54
2022-10-30T11:52:25.116Z,14.32
2022-10-30T11:55:00.749Z,12.47
2022-10-30T11:57:38.184Z,13.32
2022-10-30T12:00:09.268Z,14.17
2022-10-30T12:02:43.351Z,15.17
2022-10-30T12:05:31.117Z,15.16
2022-10-30T12:08:07.208Z,15.19
2022-10-30T12:10:42.155Z,13.15
2022-10-30T12:13:15.992Z,15.25
2022-10-30T12:15:45.525Z,15.12
2022-10-30T12:18:25.914Z,10.08
2022-10-30T12:20:57.421Z,15.46
2022-10-30T12:23:27.258Z,11.62
2022-10-30T12:25:57.865Z,14.88
2022-10-30T12:28:27.775Z,10.49
2022-10-30T12:31:03.161Z,13.67
2022-10-30T12:33:37.835Z,13.69
2022-10-30T12:36:14.461Z,15.47
2022-10-30T12:38:45.494Z,15.47
2022-10-30T12:41:30.860Z,15.46
2022-10-30T12:44:20.169Z,14.35
2022-10-30T12:47:08.936Z,15.36
2022-10-30T12:49:58.263Z,14.60
2022-10-30T12:52:51.808Z,15.08
2022-10-30T12:55:28.042Z,13.89
2022-10-30T12:58:15.800Z,15.16
2022-10-30T13:00:59.158Z,14.73
2022-10-30T13:03:36.481Z,14.65
2022-10-30T13:06:15.489Z,12.36
2022-10-30T13:09:15.571Z,14.99
2022-10-30T13:11:59.775Z,14.87
2022-10-30T13:14:43.098Z,14.39
2022-10-30T13:17:12.750Z,14.14
2022-10-30T13:19:45.761Z,13.53
2022-10-30T13:22:49.525Z,15.04
2022-10-30T13:25:26.666Z,14.30
2022-10-30T13:28:06.042Z,14.97
2022-10-30T13:30:42.556Z,14.94
2022-10-30T13:33:41.566Z,14.96
2022-10-30T13:36:14.460Z,14.98
2022-10-30T13:39:03.220Z,15.04
2022-10-30T13:42:00.558Z,15.04
2022-10-30T13:44:53.783Z,14.97
2022-10-30T13:47:29.651Z,15.05
2022-10-30T13:50:15.135Z,14.84
2022-10-30T13:52:47.530Z,14.78
2022-10-30T13:55:30.137Z,13.96
2022-10-30T13:58:16.153Z,14.90
2022-10-30T14:00:58.428Z,14.86
2022-10-30T14:03:33.724Z,14.76
2022-10-30T14:06:21.861Z,13.84
2022-10-30T14:09:34.482Z,13.54
2022-10-30T14:12:38.450Z,14.59
2022-10-30T14:15:06.723Z,14.56
2022-10-30T14:17:33.803Z,9.66
2022-10-30T14:20:12.559Z,14.55
2022-10-30T14:22:41.424Z,13.93
2022-10-30T14:25:16.304Z,13.14
2022-10-30T14:27:43.534Z,10.84
2022-10-30T14:30:20.551Z,11.87
2022-10-30T14:32:52.590Z,14.10
2022-10-30T14:35:38.252Z,14.32
2022-10-30T14:38:08.177Z,14.29
2022-10-30T14:40:38.293Z,14.23
2022-10-30T14:43:36.709Z,13.00
2022-10-30T14:46:19.239Z,13.82
2022-10-30T14:49:11.356Z,14.13
2022-10-30T14:52:17.707Z,13.03
2022-10-30T14:55:07.178Z,14.02
2022-10-30T14:57:54.618Z,13.99
2022-10-30T15:00:24.377Z,13.93
2022-10-30T15:03:34.582Z,13.02
2022-10-30T15:06:21.570Z,13.80
2022-10-30T15:09:07.402Z,13.75
2022-10-30T15:11:56.560Z,12.22
2022-10-30T15:14:48.398Z,12.89
2022-10-30T15:17:23.756Z,13.46
2022-10-30T15:19:50.908Z,10.78
2022-10-30T15:22:21.329Z,13.40
2022-10-30T15:24:51.300Z,8.96
2022-10-30T15:27:20.964Z,11.86
2022-10-30T15:29:55.122Z,12.31
2022-10-30T15:32:24.633Z,12.60
2022-10-30T15:35:01.400Z,13.28
2022-10-30T15:37:28.649Z,12.90
2022-10-30T15:40:17.196Z,13.27
2022-10-30T15:42:45.618Z,11.86
2022-10-30T15:45:22.053Z,11.26
2022-10-30T15:47:59.958Z,12.54
2022-10-30T15:50:27.889Z,10.55
2022-10-30T15:52:55.627Z,12.45
2022-10-30T15:55:28.640Z,12.96
2022-10-30T15:58:04.361Z,11.11
2022-10-30T16:00:36.129Z,11.54
2022-10-30T16:03:06.882Z,12.92
2022-10-30T16:05:35.137Z,11.50
2022-10-30T16:08:04.052Z,12.89
2022-10-30T16:10:36.123Z,12.57
2022-10-30T16:13:04.196Z,11.03
2022-10-30T16:15:35.270Z,12.87
2022-10-30T16:18:08.277Z,12.91
2022-10-30T16:20:36.672Z,11.75
2022-10-30T16:23:05.610Z,11.35
2022-10-30T16:25:34.526Z,9.99
2022-10-30T16:28:01.883Z,12.21
2022-10-30T16:30:32.310Z,12.64
2022-10-30T16:33:00.169Z,12.34
2022-10-30T16:35:28.249Z,12.68
2022-10-30T16:37:56.719Z,10.45
2022-10-30T16:40:29.315Z,11.84
2022-10-30T16:43:02.181Z,12.58
2022-10-30T16:45:32.390Z,12.72
2022-10-30T16:48:09.261Z,12.71
2022-10-30T16:50:38.518Z,11.63
2022-10-30T16:53:19.760Z,10.59
2022-10-30T16:55:47.380Z,10.34
2022-10-30T16:58:16.399Z,11.63
2022-10-30T17:00:53.843Z,12.30
2022-10-30T17:03:25.561Z,12.30
2022-10-30T17:06:04.900Z,11.37
2022-10-30T17:08:42.201Z,10.19
2022-10-30T17:11:21.083Z,12.39
2022-10-30T17:13:59.901Z,11.18
2022-10-30T17:16:27.990Z,12.36
2022-10-30T17:19:00.432Z,9.03
2022-10-30T17:21:38.609Z,12.14
2022-10-30T17:24:06.345Z,12.16
2022-10-30T17:26:41.209Z,11.37
2022-10-30T17:29:36.854Z,12.14
2022-10-30T17:32:23.553Z,12.11
2022-10-30T17:35:00.675Z,12.15
2022-10-30T17:37:28.209Z,12.08
2022-10-30T17:39:55.192Z,11.80
2022-10-30T17:42:22.642Z,11.37
2022-10-30T17:44:49.637Z,11.86
2022-10-30T17:47:18.955Z,11.42
2022-10-30T17:49:46.852Z,11.82
2022-10-30T17:52:15.819Z,8.66
2022-10-30T17:54:43.200Z,11.70
2022-10-30T17:57:12.119Z,10.04
2022-10-30T17:59:39.935Z,11.59
2022-10-30T18:02:17.029Z,11.53
2022-10-30T18:04:44.746Z,11.45
2022-10-30T18:07:13.310Z,8.78
2022-10-30T18:09:40.950Z,11.35
2022-10-30T18:12:12.584Z,9.12
2022-10-30T18:14:39.497Z,9.72
2022-10-30T18:17:07.058Z,4.16
2022-10-30T18:19:33.956Z,2.82
2022-10-30T18:22:00.909Z,8.15
2022-10-30T18:24:27.842Z,9.67
2022-10-30T18:26:58.793Z,10.62
2022-10-30T18:29:25.818Z,11.13
2022-10-30T18:31:52.819Z,10.05
2022-10-30T18:34:22.573Z,10.01
2022-10-30T18:36:50.000Z,10.65
2022-10-30T18:39:21.014Z,11.09
2022-10-30T18:41:49.453Z,10.00
2022-10-30T18:44:19.447Z,9.25
2022-10-30T18:46:46.775Z,9.71
2022-10-30T18:49:14.020Z,10.93
2022-10-30T18:51:41.306Z,10.90
2022-10-30T18:54:14.055Z,10.49
2022-10-30T18:56:41.432Z,2.54
2022-10-30T18:59:08.386Z,10.55
2022-10-30T19:01:35.773Z,10.29
2022-10-30T19:04:04.186Z,4.58
2022-10-30T19:06:34.809Z,3.65
2022-10-30T19:09:02.037Z,10.51
2022-10-30T19:11:31.913Z,3.97
2022-10-30T19:13:59.135Z,11.06
2022-10-30T19:16:26.228Z,5.95
2022-10-30T19:18:53.464Z,10.64
2022-10-30T19:21:25.951Z,10.98
2022-10-30T19:23:54.444Z,10.74
2022-10-30T19:26:21.363Z,11.01
2022-10-30T19:28:48.336Z,10.99
2022-10-30T19:31:17.493Z,9.79
2022-10-30T19:33:44.709Z,10.98
2022-10-30T19:36:37.192Z,11.01
2022-10-30T19:39:11.648Z,10.96
2022-10-30T19:41:40.291Z,9.40
2022-10-30T19:44:07.235Z,8.51
2022-10-30T19:46:34.444Z,10.70
2022-10-30T19:49:02.080Z,8.73
2022-10-30T19:51:29.359Z,9.25
2022-10-30T19:53:56.524Z,10.71
2022-10-30T19:56:23.627Z,6.95
2022-10-30T19:58:50.912Z,9.02
2022-10-30T20:01:18.201Z,9.24
2022-10-30T20:03:45.288Z,7.37
2022-10-30T20:06:13.765Z,10.93
2022-10-30T20:08:40.783Z,9.90
2022-10-30T20:11:08.128Z,10.83
2022-10-30T20:13:35.288Z,9.13
2022-10-30T20:16:05.391Z,10.79
2022-10-30T20:18:35.137Z,10.45
2022-10-30T20:21:05.060Z,10.68
2022-10-30T20:23:32.043Z,9.53
2022-10-30T20:26:01.845Z,10.06
2022-10-30T20:28:32.129Z,10.19
2022-10-30T20:30:59.281Z,10.38
2022-10-30T20:33:26.636Z,10.33
2022-10-30T20:35:57.071Z,8.43
2022-10-30T20:38:26.717Z,5.33
2022-10-30T20:40:54.313Z,10.21
2022-10-30T20:43:25.401Z,10.28
2022-10-30T20:45:52.360Z,8.40
2022-10-30T20:48:19.442Z,6.01
2022-10-30T20:50:50.484Z,9.02
2022-10-30T20:53:17.838Z,10.12
2022-10-30T20:55:45.764Z,8.43
2022-10-30T20:58:13.365Z,9.30
2022-10-30T21:00:40.552Z,8.81
2022-10-30T21:03:07.930Z,8.12
2022-10-30T21:05:44.724Z,10.01
2022-10-30T21:08:14.482Z,4.67
2022-10-30T21:10:42.561Z,7.24
2022-10-30T21:13:10.888Z,9.86
2022-10-30T21:15:42.933Z,8.89
2022-10-30T21:18:11.792Z,9.70
2022-10-30T21:20:39.513Z,9.60
2022-10-30T21:23:06.872Z,8.93
2022-10-30T21:25:34.100Z,9.46
2022-10-30T21:28:01.884Z,9.39
2022-10-30T21:30:29.113Z,1.58
2022-10-30T21:32:56.083Z,2.51
2022-10-30T21:35:23.079Z,7.95
2022-10-30T21:37:50.282Z,9.37
2022-10-30T21:40:17.394Z,2.56
2022-10-30T21:42:47.231Z,3.07
2022-10-30T21:45:14.224Z,6.94
2022-10-30T21:47:41.150Z,7.41
2022-10-30T21:50:12.291Z,3.77
2022-10-30T21:52:40.174Z,7.63
2022-10-30T21:55:07.689Z,8.37
2022-10-30T21:57:35.216Z,8.81
2022-10-30T22:00:05.678Z,8.63
2022-10-30T22:02:34.580Z,8.32
2022-10-30T22:05:01.589Z,3.10
2022-10-30T22:07:28.554Z,6.77
2022-10-30T22:09:55.534Z,7.33
2022-10-30T22:12:22.469Z,6.96
2022-10-30T22:14:49.398Z,7.66
2022-10-30T22:17:16.489Z,8.60
2022-10-30T22:19:43.429Z,7.40
2022-10-30T22:22:11.414Z,8.63
2022-10-30T22:24:38.710Z,8.71
2022-10-30T22:27:05.789Z,7.32
2022-10-30T22:29:33.018Z,7.59
2022-10-30T22:32:00.051Z,7.92
2022-10-30T22:34:27.031Z,4.74
2022-10-30T22:36:53.948Z,1.47
2022-10-30T22:39:20.922Z,1.12
2022-10-30T22:41:47.878Z,6.66
2022-10-30T22:44:18.895Z,8.41
2022-10-30T22:46:46.279Z,8.61
2022-10-30T22:49:13.279Z,6.55
2022-10-30T22:51:40.306Z,2.47
2022-10-30T22:54:10.202Z,8.67
2022-10-30T22:56:37.664Z,6.72
2022-10-30T22:59:08.440Z,8.54
2022-10-30T23:01:36.127Z,8.50
2022-10-30T23:04:05.263Z,5.74
2022-10-30T23:06:34.330Z,8.18
2022-10-30T23:09:04.507Z,8.49
2022-10-30T23:11:31.517Z,6.87
2022-10-30T23:13:58.471Z,4.87
2022-10-30T23:16:26.769Z,-1.85
2022-10-30T23:18:58.338Z,8.36
2022-10-30T23:21:27.073Z,8.39
2022-10-30T23:23:55.482Z,8.37
2022-10-30T23:26:28.191Z,8.29
2022-10-30T23:28:56.290Z,6.43
2022-10-30T23:31:31.400Z,7.89
2022-10-30T23:34:00.983Z,6.53
2022-10-30T23:36:28.616Z,8.23
2022-10-30T23:39:00.520Z,8.24
2022-10-30T23:41:30.896Z,8.21
2022-10-30T23:44:00.360Z,8.23
2022-10-30T23:46:28.051Z,8.22
2022-10-30T23:48:55.663Z,7.83
2022-10-30T23:51:22.608Z,2.10
2022-10-30T23:53:49.762Z,5.96
2022-10-30T23:56:17.301Z,5.68
2022-10-30T23:58:45.914Z,6.54
